Ray Eckstein — WDC2804 — position and weather

sailwx.info

Track history (hours):
 
Tides and Currents Weather Stations Pressure Air Temp Water Temp Dewpoint Dewpoint Depression Visibility Wind Speed Wind Dir Waves Ship Positions

Ray Eckstein

Owner: Marquette Transportation Company Gulf-Inland, LLC, Jefferson, LA. More information available from US FCC via Universal Licensing System and Coast Guard Vessel Documentation Center.

Last reported at 2017-Dec-17 18:46 UTC. Time now 2018-Jan-22 10:37 UTC.
Position N 31°59' W 091°06'.
Warning: this ship's position is 35 days out of date.

Length 137 m.

MMSI: 366997930.

Date/timePositionNaut miles runAvg speedWind from/ knotsBaromVisibWave heightAir tempDewpointWater temp
2017-Dec-17 18:46N 31°59' W 091°06'7 8.1
2017-Dec-17 17:53N 32°06' W 091°06'3 6.1
2017-Dec-17 17:28N 32°08' W 091°03'4 7.7
2017-Dec-17 17:00N 32°10' W 091°00'5 9.6
2017-Dec-17 16:31N 32°14' W 090°59'5 9.7
2017-Dec-17 16:01N 32°18' W 090°55'3 5.3
2017-Dec-17 15:31N 32°20' W 090°54'0 0.2
2017-Dec-17 15:00N 32°20' W 090°54'1 2.2
2017-Dec-17 14:31N 32°19' W 090°54'2 4.3
2017-Dec-17 14:00N 32°18' W 090°56'2 4.1
2017-Dec-17 13:31N 32°16' W 090°58'2 3.1
2017-Dec-17 13:00N 32°15' W 090°59'2 3.4
2017-Dec-17 12:30N 32°13' W 090°59'2 4.0
2017-Dec-17 12:00N 32°11' W 090°60'0 0.4
2017-Dec-17 11:11N 32°11' W 090°60'0 0.0
2017-Dec-17 09:52N 32°11' W 090°60'0 0.5
2017-Dec-17 09:30N 32°11' W 090°60'2 3.5
2017-Dec-17 09:00N 32°09' W 091°00'2 3.4
2017-Dec-17 08:30N 32°08' W 091°01'4 3.7
2017-Dec-17 07:25N 32°08' W 091°06'1 3.3
2017-Dec-17 07:00N 32°07' W 091°06'4 3.8
2017-Dec-17 05:51N 32°03' W 091°03'13 3.4
2017-Dec-17 02:00N 31°53' W 091°13'  
Track history (hours):
 
Tides and Currents Weather Stations Pressure Air Temp Water Temp Dewpoint Dewpoint Depression Visibility Wind Speed Wind Dir Waves Ship Positions

Ray Eckstein

Owner: Marquette Transportation Company Gulf-Inland, LLC, Jefferson, LA. More information available from US FCC via Universal Licensing System and Coast Guard Vessel Documentation Center.

Last reported at 2017-Dec-17 18:46 UTC. Time now 2018-Jan-22 10:37 UTC.
Position N 31°59' W 091°06'.
Warning: this ship's position is 35 days out of date.

Length 137 m.

MMSI: 366997930.

Date/timePositionNaut miles runAvg speedWind from/ knotsBaromVisibWave heightAir tempDewpointWater temp
2017-Dec-17 18:46N 31°59' W 091°06'7 8.1
2017-Dec-17 17:53N 32°06' W 091°06'3 6.1
2017-Dec-17 17:28N 32°08' W 091°03'4 7.7
2017-Dec-17 17:00N 32°10' W 091°00'5 9.6
2017-Dec-17 16:31N 32°14' W 090°59'5 9.7
2017-Dec-17 16:01N 32°18' W 090°55'3 5.3
2017-Dec-17 15:31N 32°20' W 090°54'0 0.2
2017-Dec-17 15:00N 32°20' W 090°54'1 2.2
2017-Dec-17 14:31N 32°19' W 090°54'2 4.3
2017-Dec-17 14:00N 32°18' W 090°56'2 4.1
2017-Dec-17 13:31N 32°16' W 090°58'2 3.1
2017-Dec-17 13:00N 32°15' W 090°59'2 3.4
2017-Dec-17 12:30N 32°13' W 090°59'2 4.0
2017-Dec-17 12:00N 32°11' W 090°60'0 0.4
2017-Dec-17 11:11N 32°11' W 090°60'0 0.0
2017-Dec-17 09:52N 32°11' W 090°60'0 0.5
2017-Dec-17 09:30N 32°11' W 090°60'2 3.5
2017-Dec-17 09:00N 32°09' W 091°00'2 3.4
2017-Dec-17 08:30N 32°08' W 091°01'4 3.7
2017-Dec-17 07:25N 32°08' W 091°06'1 3.3
2017-Dec-17 07:00N 32°07' W 091°06'4 3.8
2017-Dec-17 05:51N 32°03' W 091°03'13 3.4
2017-Dec-17 02:00N 31°53' W 091°13'  

Dump ship's entire track history